Time;durP1;ratioP1;P1;durP2;ratioP2;P2;SDS_P1;SDS_P2;PMS_P1;PMS_P2;Temp;Humidity;BMP_temperature;BMP_pressure;BME280_temperature;BME280_humidity;BME280_pressure;Samples;Min_cycle;Max_cycle;Signal;HPM_P1;HPM_P2
2024/02/06 00:01:38;;;;;;;9.13;4.73;;;;;;;;;;5093776;28;20272;-90
2024/02/06 00:04:44;;;;;;;12.90;4.90;;;;;;;;;;5092442;28;20220;-91
2024/02/06 00:07:50;;;;;;;15.47;5.10;;;;;;;;;;5096029;28;20215;-90
2024/02/06 00:10:55;;;;;;;11.17;4.77;;;;;;;;;;5113402;28;20235;-91
2024/02/06 00:14:00;;;;;;;14.70;4.90;;;;;;;;;;5112708;28;20547;-89
2024/02/06 00:17:06;;;;;;;10.83;4.63;;;;;;;;;;5112134;28;20205;-90
2024/02/06 00:20:12;;;;;;;14.80;5.00;;;;;;;;;;5112644;28;20264;-91
2024/02/06 00:23:22;;;;;;;13.57;4.70;;;;;;;;;;5095990;28;20266;-91
2024/02/06 00:26:27;;;;;;;11.47;4.80;;;;;;;;;;5113929;28;20213;-89
2024/02/06 00:29:32;;;;;;;16.33;5.00;;;;;;;;;;5112911;28;20215;-93
2024/02/06 00:32:38;;;;;;;11.40;5.00;;;;;;;;;;5114773;28;20209;-91
2024/02/06 00:35:45;;;;;;;13.90;5.47;;;;;;;;;;5114031;28;20184;-89
2024/02/06 00:38:51;;;;;;;10.07;5.37;;;;;;;;;;5113133;28;20252;-91
2024/02/06 00:41:56;;;;;;;8.57;4.70;;;;;;;;;;5113141;28;20766;-90
2024/02/06 00:45:02;;;;;;;16.43;5.73;;;;;;;;;;5112260;28;20275;-91
2024/02/06 00:48:07;;;;;;;18.20;6.00;;;;;;;;;;5113923;28;20292;-90
2024/02/06 00:51:14;;;;;;;17.33;6.43;;;;;;;;;;5113448;28;20177;-89
2024/02/06 00:54:19;;;;;;;15.30;6.23;;;;;;;;;;5114832;28;20193;-90
2024/02/06 00:57:24;;;;;;;17.20;6.17;;;;;;;;;;5116715;28;20227;-90
2024/02/06 01:00:29;;;;;;;18.87;6.57;;;;;;;;;;5115942;28;20184;-90
2024/02/06 01:03:35;;;;;;;23.43;6.00;;;;;;;;;;5117332;28;20209;-92
2024/02/06 01:06:41;;;;;;;13.47;5.43;;;;;;;;;;5116557;28;20655;-90
2024/02/06 01:09:47;;;;;;;10.97;5.03;;;;;;;;;;5107706;28;20280;-91
2024/02/06 01:12:52;;;;;;;14.60;5.63;;;;;;;;;;5107499;28;20189;-90
2024/02/06 01:15:58;;;;;;;14.23;5.77;;;;;;;;;;5107826;28;20272;-90
2024/02/06 01:19:04;;;;;;;11.17;5.70;;;;;;;;;;5107603;28;20252;-91
2024/02/06 01:22:10;;;;;;;15.07;5.70;;;;;;;;;;5107810;28;20268;-92
2024/02/06 01:25:15;;;;;;;13.63;5.07;;;;;;;;;;5112034;28;20198;-91
2024/02/06 01:28:20;;;;;;;14.33;5.30;;;;;;;;;;5112216;28;20170;-91
2024/02/06 01:31:26;;;;;;;14.63;5.50;;;;;;;;;;5111497;28;20193;-90
2024/02/06 01:34:32;;;;;;;13.63;5.43;;;;;;;;;;5110803;28;20241;-92
2024/02/06 01:37:39;;;;;;;15.37;5.67;;;;;;;;;;5111131;28;20205;-92
2024/02/06 01:40:45;;;;;;;16.63;5.27;;;;;;;;;;5111914;28;20220;-92
2024/02/06 01:43:50;;;;;;;9.63;5.30;;;;;;;;;;5111089;28;20186;-92
2024/02/06 01:46:55;;;;;;;12.43;5.50;;;;;;;;;;5111356;28;20287;-90
2024/02/06 01:50:00;;;;;;;11.20;5.20;;;;;;;;;;5119621;28;20169;-89
2024/02/06 01:53:10;;;;;;;13.77;5.70;;;;;;;;;;5112082;28;20193;-89
2024/02/06 01:56:16;;;;;;;17.77;6.17;;;;;;;;;;5117438;28;20177;-92
2024/02/06 01:59:24;;;;;;;85.90;8.60;;;;;;;;;;5116798;28;20193;-89
2024/02/06 02:02:29;;;;;;;27.60;7.17;;;;;;;;;;5117128;28;20266;-90
2024/02/06 02:05:34;;;;;;;15.03;6.17;;;;;;;;;;5115914;28;20197;-92
2024/02/06 02:08:41;;;;;;;28.83;6.60;;;;;;;;;;5106276;28;20211;-90
2024/02/06 02:11:46;;;;;;;21.17;7.00;;;;;;;;;;5105413;28;20320;-90
2024/02/06 02:14:52;;;;;;;22.10;6.27;;;;;;;;;;5106098;28;20663;-91
2024/02/06 02:17:57;;;;;;;22.20;6.47;;;;;;;;;;5106471;28;20251;-91
2024/02/06 02:21:08;;;;;;;13.47;5.80;;;;;;;;;;5106674;28;20182;-93
2024/02/06 02:24:13;;;;;;;16.13;5.50;;;;;;;;;;5105187;28;20181;-90
2024/02/06 02:27:19;;;;;;;15.43;6.43;;;;;;;;;;5105232;28;20217;-90
2024/02/06 02:30:25;;;;;;;17.87;7.03;;;;;;;;;;5113492;28;20197;-92
2024/02/06 02:33:30;;;;;;;19.30;6.60;;;;;;;;;;5106123;28;20235;-90
2024/02/06 02:36:36;;;;;;;20.23;6.43;;;;;;;;;;5107196;28;20194;-91
2024/02/06 02:39:41;;;;;;;18.23;6.67;;;;;;;;;;5106256;28;20186;-92
2024/02/06 02:42:47;;;;;;;16.00;6.37;;;;;;;;;;5106192;28;20189;-91
2024/02/06 02:45:52;;;;;;;17.60;6.23;;;;;;;;;;5106005;28;20205;-92
2024/02/06 02:48:58;;;;;;;15.67;6.33;;;;;;;;;;5107448;28;20190;-92
2024/02/06 02:52:05;;;;;;;18.37;6.00;;;;;;;;;;5108819;28;20185;-93
2024/02/06 02:55:10;;;;;;;17.30;6.20;;;;;;;;;;5108929;28;20190;-93
2024/02/06 02:58:16;;;;;;;19.53;6.80;;;;;;;;;;5108598;28;20174;-90
2024/02/06 03:01:21;;;;;;;21.77;7.30;;;;;;;;;;5107977;28;20228;-90
2024/02/06 03:04:27;;;;;;;28.03;6.97;;;;;;;;;;5107839;28;20198;-90
2024/02/06 03:07:34;;;;;;;17.00;6.43;;;;;;;;;;5106935;28;20201;-91
2024/02/06 03:10:39;;;;;;;35.30;6.03;;;;;;;;;;5108066;28;20209;-92
2024/02/06 03:13:45;;;;;;;19.33;5.33;;;;;;;;;;5106321;28;20193;-92
2024/02/06 03:16:50;;;;;;;15.90;5.50;;;;;;;;;;5106024;28;20185;-90
2024/02/06 03:19:56;;;;;;;18.57;5.83;;;;;;;;;;5106335;28;20228;-89
2024/02/06 03:23:03;;;;;;;17.30;5.47;;;;;;;;;;5107291;28;20178;-91
2024/02/06 03:26:09;;;;;;;13.10;5.00;;;;;;;;;;5106892;28;20239;-92
2024/02/06 03:29:14;;;;;;;11.13;5.30;;;;;;;;;;5105990;28;20276;-92
2024/02/06 03:32:19;;;;;;;10.40;4.70;;;;;;;;;;5107325;28;20162;-90
2024/02/06 03:35:24;;;;;;;12.87;5.80;;;;;;;;;;5104721;28;20679;-91
2024/02/06 03:38:31;;;;;;;15.43;5.90;;;;;;;;;;5105604;28;20185;-88
2024/02/06 03:41:37;;;;;;;15.33;5.67;;;;;;;;;;5107347;28;20211;-91
2024/02/06 03:44:42;;;;;;;18.03;5.80;;;;;;;;;;5106799;28;20182;-92
2024/02/06 03:47:48;;;;;;;22.73;6.47;;;;;;;;;;5106180;28;20213;-90
2024/02/06 03:50:53;;;;;;;17.23;5.90;;;;;;;;;;5093635;28;20795;-90
2024/02/06 03:54:00;;;;;;;15.93;6.70;;;;;;;;;;5094073;28;20220;-90
2024/02/06 03:57:06;;;;;;;79.20;7.53;;;;;;;;;;5093385;28;20193;-91
2024/02/06 04:00:11;;;;;;;46.80;6.80;;;;;;;;;;5093812;28;20293;-93
2024/02/06 04:03:18;;;;;;;16.27;5.97;;;;;;;;;;5093022;28;20205;-92
2024/02/06 04:06:24;;;;;;;20.77;6.30;;;;;;;;;;5092567;28;20221;-90
2024/02/06 04:09:31;;;;;;;14.00;6.10;;;;;;;;;;5098029;28;20180;-91
2024/02/06 04:12:36;;;;;;;13.33;5.37;;;;;;;;;;5105852;28;20196;-89
2024/02/06 04:15:41;;;;;;;13.90;5.33;;;;;;;;;;5106042;28;20185;-90
2024/02/06 04:18:46;;;;;;;32.13;6.33;;;;;;;;;;5104900;28;20191;-92
2024/02/06 04:21:52;;;;;;;14.00;6.17;;;;;;;;;;5106568;28;20186;-91
2024/02/06 04:24:59;;;;;;;21.33;5.87;;;;;;;;;;5106680;28;20194;-91
2024/02/06 04:28:05;;;;;;;26.00;5.57;;;;;;;;;;5114211;28;20342;-91
2024/02/06 04:31:11;;;;;;;29.37;5.67;;;;;;;;;;5094424;28;20181;-89
2024/02/06 04:34:16;;;;;;;24.03;5.80;;;;;;;;;;5094232;28;20180;-90
2024/02/06 04:37:23;;;;;;;13.07;5.43;;;;;;;;;;5102055;28;20196;-91
2024/02/06 04:40:29;;;;;;;9.43;4.80;;;;;;;;;;5113806;28;20323;-91
2024/02/06 04:43:36;;;;;;;14.60;5.77;;;;;;;;;;5127100;28;20193;-90
2024/02/06 04:46:41;;;;;;;19.93;5.80;;;;;;;;;;5114028;28;20176;-92
2024/02/06 04:49:47;;;;;;;11.63;5.47;;;;;;;;;;5112700;28;20211;-92
2024/02/06 04:52:54;;;;;;;16.27;5.80;;;;;;;;;;5113895;28;20197;-91
2024/02/06 04:56:01;;;;;;;14.33;5.80;;;;;;;;;;5113051;27;20177;-92
2024/02/06 04:59:12;;;;;;;32.67;6.13;;;;;;;;;;5117816;28;20185;-92
2024/02/06 05:02:17;;;;;;;36.97;6.33;;;;;;;;;;5120331;28;20549;-89
2024/02/06 05:05:22;;;;;;;24.17;6.03;;;;;;;;;;5098001;28;20228;-90
2024/02/06 05:08:28;;;;;;;23.10;5.90;;;;;;;;;;5096814;28;20228;-90
2024/02/06 05:11:35;;;;;;;25.60;6.53;;;;;;;;;;5094712;28;20283;-91
2024/02/06 05:14:40;;;;;;;16.73;5.43;;;;;;;;;;5097578;28;20193;-90
2024/02/06 05:17:46;;;;;;;16.17;6.13;;;;;;;;;;5093550;28;20182;-89
2024/02/06 05:20:50;;;;;;;22.07;5.70;;;;;;;;;;5094940;28;20190;-90
2024/02/06 05:23:56;;;;;;;19.47;5.70;;;;;;;;;;5096235;28;20395;-91
2024/02/06 05:27:03;;;;;;;14.90;5.90;;;;;;;;;;5105712;28;20193;-91
2024/02/06 05:30:09;;;;;;;14.80;5.73;;;;;;;;;;5120021;28;20197;-89
2024/02/06 05:33:16;;;;;;;11.70;5.70;;;;;;;;;;5119694;28;20327;-90
2024/02/06 05:36:22;;;;;;;12.67;6.23;;;;;;;;;;5120027;28;20296;-91
2024/02/06 05:39:28;;;;;;;11.97;5.40;;;;;;;;;;5116310;28;20312;-89
2024/02/06 05:42:34;;;;;;;21.07;5.77;;;;;;;;;;5116611;28;20220;-90
2024/02/06 05:45:40;;;;;;;22.90;6.03;;;;;;;;;;5117294;28;20186;-91
2024/02/06 05:48:45;;;;;;;12.90;5.37;;;;;;;;;;5114876;28;20228;-88
2024/02/06 05:51:50;;;;;;;17.83;6.53;;;;;;;;;;5111685;28;20231;-90
2024/02/06 05:54:55;;;;;;;20.03;6.03;;;;;;;;;;5110829;28;20283;-91
2024/02/06 05:58:03;;;;;;;15.33;5.30;;;;;;;;;;5116809;28;20184;-92
2024/02/06 06:01:11;;;;;;;13.87;5.30;;;;;;;;;;5109179;28;20205;-91
2024/02/06 06:04:17;;;;;;;12.93;5.57;;;;;;;;;;5109499;28;20667;-89
2024/02/06 06:07:22;;;;;;;16.03;5.90;;;;;;;;;;5108782;28;20232;-94
2024/02/06 06:10:28;;;;;;;23.67;5.83;;;;;;;;;;5108139;28;20571;-91
2024/02/06 06:13:34;;;;;;;26.57;6.57;;;;;;;;;;5108577;28;20193;-92
2024/02/06 06:16:41;;;;;;;21.07;6.43;;;;;;;;;;5099862;28;20637;-91
2024/02/06 06:19:51;;;;;;;40.10;9.00;;;;;;;;;;5109494;28;20193;-90
2024/02/06 06:22:56;;;;;;;19.57;7.40;;;;;;;;;;5096678;28;20186;-91
2024/02/06 06:26:04;;;;;;;14.77;6.53;;;;;;;;;;5096795;28;20186;-92
2024/02/06 06:29:11;;;;;;;29.87;6.63;;;;;;;;;;5098543;28;20205;-91
2024/02/06 06:32:16;;;;;;;17.83;6.27;;;;;;;;;;5099480;28;20189;-91
2024/02/06 06:35:22;;;;;;;55.70;7.63;;;;;;;;;;5098861;28;20205;-92
2024/02/06 06:38:28;;;;;;;27.10;6.40;;;;;;;;;;5097860;28;20193;-91
2024/02/06 06:41:36;;;;;;;22.03;6.73;;;;;;;;;;5112368;28;20209;-90
2024/02/06 06:44:43;;;;;;;25.57;6.77;;;;;;;;;;5100180;28;20181;-92
2024/02/06 06:47:48;;;;;;;21.57;6.40;;;;;;;;;;5097202;28;20266;-90
2024/02/06 06:50:53;;;;;;;11.80;5.40;;;;;;;;;;5096209;28;20198;-90
2024/02/06 06:53:58;;;;;;;10.53;5.20;;;;;;;;;;5095359;28;20182;-89
2024/02/06 06:57:04;;;;;;;14.20;5.77;;;;;;;;;;5094544;28;20189;-89
2024/02/06 07:00:12;;;;;;;14.00;5.23;;;;;;;;;;5112493;28;20270;-90
2024/02/06 07:03:17;;;;;;;10.27;4.80;;;;;;;;;;5115799;27;20286;-91
2024/02/06 07:06:22;;;;;;;13.27;5.50;;;;;;;;;;5116742;27;20503;-91
2024/02/06 07:09:29;;;;;;;18.07;6.20;;;;;;;;;;5115386;27;20221;-90
2024/02/06 07:12:34;;;;;;;10.70;5.80;;;;;;;;;;5115614;27;20201;-89
2024/02/06 07:15:41;;;;;;;22.50;8.67;;;;;;;;;;5114701;27;20193;-89
2024/02/06 07:18:48;;;;;;;18.20;7.67;;;;;;;;;;5116137;28;20204;-92
2024/02/06 07:21:56;;;;;;;20.87;7.77;;;;;;;;;;5115977;27;20314;-91
2024/02/06 07:25:02;;;;;;;19.80;8.00;;;;;;;;;;5107341;28;20202;-91
2024/02/06 07:28:10;;;;;;;28.50;7.60;;;;;;;;;;5095788;28;20201;-90
2024/02/06 07:31:17;;;;;;;25.13;7.57;;;;;;;;;;5091990;28;20251;-92
2024/02/06 07:34:22;;;;;;;17.57;7.27;;;;;;;;;;5095921;28;20198;-88
2024/02/06 07:37:28;;;;;;;19.23;7.80;;;;;;;;;;5107029;28;20238;-90
2024/02/06 07:40:34;;;;;;;19.67;7.87;;;;;;;;;;5110920;28;20221;-90
2024/02/06 07:43:40;;;;;;;21.37;7.80;;;;;;;;;;5113138;28;20177;-91
2024/02/06 07:46:47;;;;;;;20.00;6.90;;;;;;;;;;5111283;28;20193;-92
2024/02/06 07:49:52;;;;;;;17.00;7.77;;;;;;;;;;5110359;28;20243;-89
2024/02/06 07:52:57;;;;;;;19.40;7.27;;;;;;;;;;5108229;28;20495;-91
2024/02/06 07:56:04;;;;;;;20.20;8.10;;;;;;;;;;5101445;28;20189;-90
2024/02/06 07:59:11;;;;;;;15.27;7.60;;;;;;;;;;5103635;28;20682;-91
2024/02/06 08:02:17;;;;;;;16.60;7.67;;;;;;;;;;5099917;28;20264;-89
2024/02/06 08:05:23;;;;;;;18.00;7.43;;;;;;;;;;5112065;28;20234;-91
2024/02/06 08:08:28;;;;;;;15.80;6.53;;;;;;;;;;5091634;28;20538;-89
2024/02/06 08:11:34;;;;;;;14.87;7.00;;;;;;;;;;5110817;28;20212;-90
2024/02/06 08:14:41;;;;;;;22.43;7.47;;;;;;;;;;5112005;28;20291;-89
2024/02/06 08:17:48;;;;;;;15.23;6.60;;;;;;;;;;5111092;28;20335;-92
2024/02/06 08:20:53;;;;;;;17.33;6.70;;;;;;;;;;5113509;28;20239;-90
2024/02/06 08:23:58;;;;;;;16.27;7.70;;;;;;;;;;5094251;28;20210;-91
2024/02/06 08:27:04;;;;;;;15.27;7.13;;;;;;;;;;5098697;28;20197;-92
2024/02/06 08:30:10;;;;;;;19.50;8.00;;;;;;;;;;5115585;28;20579;-90
2024/02/06 08:33:23;;;;;;;17.77;7.10;;;;;;;;;;5110395;28;20239;-91
2024/02/06 08:36:30;;;;;;;20.83;7.20;;;;;;;;;;5095865;28;20189;-90
2024/02/06 08:39:47;;;;;;;16.83;7.33;;;;;;;;;;5113977;28;20201;-90
2024/02/06 08:42:54;;;;;;;18.87;7.93;;;;;;;;;;5115565;28;20188;-89
2024/02/06 08:46:00;;;;;;;19.57;7.30;;;;;;;;;;5104323;28;20201;-90
2024/02/06 08:49:07;;;;;;;14.57;6.97;;;;;;;;;;5101516;27;20216;-92
2024/02/06 08:52:14;;;;;;;14.63;7.07;;;;;;;;;;5114177;28;20201;-91
2024/02/06 08:55:19;;;;;;;21.30;6.90;;;;;;;;;;5121945;27;20170;-91
2024/02/06 09:01:44;;;;;;;21.60;7.70;;;;;;;;;;5112250;28;20211;-90
2024/02/06 09:04:53;;;;;;;19.40;7.73;;;;;;;;;;5119019;28;20287;-93
2024/02/06 09:08:00;;;;;;;13.77;6.60;;;;;;;;;;5115031;28;20199;-90
2024/02/06 09:11:05;;;;;;;20.97;7.60;;;;;;;;;;5115312;28;20277;-91
2024/02/06 09:14:10;;;;;;;21.70;8.47;;;;;;;;;;5098422;28;20248;-90
2024/02/06 09:17:19;;;;;;;21.53;8.27;;;;;;;;;;5114744;28;20188;-91
2024/02/06 09:20:25;;;;;;;17.93;8.13;;;;;;;;;;5103048;28;20316;-91
2024/02/06 09:23:33;;;;;;;16.37;7.50;;;;;;;;;;5108582;28;20242;-91
2024/02/06 09:26:38;;;;;;;18.25;7.50;;;;;;;;;;5093111;28;20190;-92
2024/02/06 09:29:46;;;;;;;15.53;7.40;;;;;;;;;;5098401;28;20244;-91
2024/02/06 09:32:52;;;;;;;21.20;9.40;;;;;;;;;;5115620;27;20182;-92
2024/02/06 09:36:04;;;;;;;28.52;11.15;;;;;;;;;;5109207;28;20582;-91
2024/02/06 09:39:09;;;;;;;19.80;9.13;;;;;;;;;;5108354;28;20196;-90
2024/02/06 09:42:20;;;;;;;22.05;8.52;;;;;;;;;;5100311;28;20196;-91
2024/02/06 09:45:25;;;;;;;22.58;7.40;;;;;;;;;;5111553;27;20176;-90
2024/02/06 09:48:30;;;;;;;21.02;6.88;;;;;;;;;;5102805;28;20264;-90
2024/02/06 09:51:39;;;;;;;16.23;6.88;;;;;;;;;;5117458;28;20212;-91
2024/02/06 09:54:47;;;;;;;15.85;6.50;;;;;;;;;;5115396;28;20197;-91
2024/02/06 09:57:53;;;;;;;17.25;6.15;;;;;;;;;;5107968;28;20273;-89
2024/02/06 10:00:58;;;;;;;15.18;5.75;;;;;;;;;;5110582;28;20197;-91
2024/02/06 10:04:05;;;;;;;21.85;6.13;;;;;;;;;;5104612;28;20212;-89
2024/02/06 10:07:13;;;;;;;16.60;6.00;;;;;;;;;;5104266;28;20201;-90
2024/02/06 10:10:20;;;;;;;20.80;6.13;;;;;;;;;;5114983;28;20252;-91
2024/02/06 10:13:31;;;;;;;11.73;5.43;;;;;;;;;;5092637;28;20194;-91
2024/02/06 10:16:36;;;;;;;11.57;5.00;;;;;;;;;;5110134;28;20205;-90
2024/02/06 10:19:42;;;;;;;14.02;4.90;;;;;;;;;;5100593;28;20287;-92
2024/02/06 10:22:48;;;;;;;18.90;5.53;;;;;;;;;;5111111;28;20307;-92
2024/02/06 10:26:03;;;;;;;11.77;5.20;;;;;;;;;;5114170;28;20320;-90
2024/02/06 10:29:11;;;;;;;15.98;4.60;;;;;;;;;;5115760;28;20236;-89
2024/02/06 10:32:17;;;;;;;12.25;4.68;;;;;;;;;;5096651;28;20204;-89
2024/02/06 10:35:31;;;;;;;17.77;5.20;;;;;;;;;;5115049;28;20197;-90
2024/02/06 10:38:38;;;;;;;12.02;4.50;;;;;;;;;;5112718;28;20193;-89
2024/02/06 10:41:44;;;;;;;20.58;5.93;;;;;;;;;;5098960;28;20204;-90
2024/02/06 10:44:55;;;;;;;18.10;6.60;;;;;;;;;;5116975;27;20177;-90
2024/02/06 10:48:02;;;;;;;17.42;5.70;;;;;;;;;;5120037;28;20189;-90
2024/02/06 10:51:08;;;;;;;14.45;6.03;;;;;;;;;;5110863;28;20774;-89
2024/02/06 10:54:19;;;;;;;15.05;6.38;;;;;;;;;;5097835;28;20189;-92
2024/02/06 10:57:26;;;;;;;16.20;5.38;;;;;;;;;;5099597;28;20198;-90
2024/02/06 11:00:36;;;;;;;18.10;6.57;;;;;;;;;;5114629;27;20188;-90
2024/02/06 11:03:43;;;;;;;12.18;4.40;;;;;;;;;;5116041;28;20213;-93
2024/02/06 11:06:52;;;;;;;12.18;5.22;;;;;;;;;;5132528;28;20184;-91
2024/02/06 11:13:26;;;;;;;19.33;5.00;;;;;;;;;;5103270;27;20236;-92
2024/02/06 11:16:35;;;;;;;12.35;4.50;;;;;;;;;;5119439;28;20254;-92
2024/02/06 11:19:45;;;;;;;12.95;4.57;;;;;;;;;;5106607;28;20189;-92
2024/02/06 11:22:52;;;;;;;8.73;4.20;;;;;;;;;;5117192;28;20204;-92
2024/02/06 11:25:59;;;;;;;9.20;3.92;;;;;;;;;;5115114;28;20226;-89
2024/02/06 11:29:07;;;;;;;18.33;4.40;;;;;;;;;;5098872;28;20723;-90
2024/02/06 11:32:13;;;;;;;10.32;3.38;;;;;;;;;;5112715;28;20232;-92
2024/02/06 11:35:27;;;;;;;9.88;3.42;;;;;;;;;;5109923;28;20193;-90
2024/02/06 11:38:36;;;;;;;9.85;3.63;;;;;;;;;;5096363;28;20305;-91
2024/02/06 11:41:44;;;;;;;12.98;3.90;;;;;;;;;;5116264;28;20202;-91
2024/02/06 11:44:50;;;;;;;11.77;3.88;;;;;;;;;;5115589;28;20192;-92
2024/02/06 11:47:56;;;;;;;10.25;4.00;;;;;;;;;;5094599;28;20248;-90
2024/02/06 11:51:02;;;;;;;9.48;3.55;;;;;;;;;;5103446;28;20699;-91
2024/02/06 11:54:14;;;;;;;8.57;2.88;;;;;;;;;;5114107;28;20259;-90
2024/02/06 11:57:21;;;;;;;7.85;2.80;;;;;;;;;;5104663;28;20253;-92
2024/02/06 12:00:26;;;;;;;6.82;3.30;;;;;;;;;;5094555;28;20194;-89
2024/02/06 12:03:33;;;;;;;6.28;3.10;;;;;;;;;;5096116;28;20205;-89
2024/02/06 12:06:38;;;;;;;21.90;3.45;;;;;;;;;;5117242;28;20205;-90
2024/02/06 12:09:46;;;;;;;6.40;2.58;;;;;;;;;;5105075;28;20244;-89
2024/02/06 12:12:54;;;;;;;7.13;2.72;;;;;;;;;;5112837;28;20188;-89
2024/02/06 12:16:04;;;;;;;7.05;3.47;;;;;;;;;;5113338;27;20197;-91
2024/02/06 12:19:10;;;;;;;6.38;2.50;;;;;;;;;;5104626;28;20209;-90
2024/02/06 12:22:15;;;;;;;11.52;2.80;;;;;;;;;;5124933;28;20200;-92
2024/02/06 12:25:21;;;;;;;6.60;2.30;;;;;;;;;;5104539;28;20204;-91
2024/02/06 12:28:28;;;;;;;4.00;2.25;;;;;;;;;;5094538;28;20227;-93
2024/02/06 12:31:35;;;;;;;7.30;2.33;;;;;;;;;;5111115;28;20204;-91
2024/02/06 12:34:43;;;;;;;7.28;1.85;;;;;;;;;;5116025;28;20200;-90
2024/02/06 12:37:49;;;;;;;6.57;1.92;;;;;;;;;;5114858;28;20197;-88
2024/02/06 12:40:55;;;;;;;3.33;1.70;;;;;;;;;;5114919;28;20197;-91
2024/02/06 12:44:02;;;;;;;3.42;1.50;;;;;;;;;;5113581;28;20201;-89
2024/02/06 12:47:07;;;;;;;4.72;1.52;;;;;;;;;;5106133;28;20201;-92
2024/02/06 12:50:15;;;;;;;5.50;1.83;;;;;;;;;;5112139;28;20233;-92
2024/02/06 12:53:25;;;;;;;4.72;1.40;;;;;;;;;;5110094;28;20193;-91
2024/02/06 12:56:32;;;;;;;7.53;2.15;;;;;;;;;;5114244;28;20189;-91
2024/02/06 12:59:40;;;;;;;4.13;1.77;;;;;;;;;;5105354;27;20196;-90
2024/02/06 13:02:46;;;;;;;7.20;1.40;;;;;;;;;;5115690;28;20655;-90
2024/02/06 13:05:57;;;;;;;3.38;1.45;;;;;;;;;;5112272;28;20201;-91
2024/02/06 13:09:02;;;;;;;2.20;1.20;;;;;;;;;;5094735;28;20213;-92
2024/02/06 13:12:09;;;;;;;14.05;1.60;;;;;;;;;;5114449;28;20205;-91
2024/02/06 13:15:19;;;;;;;3.55;1.30;;;;;;;;;;5113513;28;20185;-91
2024/02/06 13:18:24;;;;;;;7.70;1.75;;;;;;;;;;5109407;28;20234;-92
2024/02/06 13:21:39;;;;;;;2.30;1.30;;;;;;;;;;5109695;28;20201;-92
2024/02/06 13:24:44;;;;;;;4.25;1.73;;;;;;;;;;5118232;28;20184;-93
2024/02/06 13:27:50;;;;;;;10.70;1.90;;;;;;;;;;5111254;28;20271;-92
2024/02/06 13:31:01;;;;;;;3.60;1.35;;;;;;;;;;5113370;27;20227;-94
2024/02/06 13:34:08;;;;;;;5.05;1.38;;;;;;;;;;5103006;28;20291;-91
2024/02/06 13:37:15;;;;;;;4.70;1.00;;;;;;;;;;5118385;28;20192;-90
2024/02/06 13:40:27;;;;;;;5.93;1.50;;;;;;;;;;5118251;28;20196;-91
2024/02/06 13:43:33;;;;;;;6.55;1.70;;;;;;;;;;5112072;28;20269;-92
2024/02/06 13:46:44;;;;;;;5.82;1.40;;;;;;;;;;5112848;28;20250;-91
2024/02/06 13:49:50;;;;;;;3.83;1.55;;;;;;;;;;5103870;28;20217;-91
2024/02/06 13:52:56;;;;;;;5.70;1.30;;;;;;;;;;5119517;28;20556;-90
2024/02/06 13:56:05;;;;;;;3.70;1.48;;;;;;;;;;5119030;28;20673;-91
2024/02/06 13:59:10;;;;;;;2.67;1.20;;;;;;;;;;5117637;28;20210;-91
2024/02/06 14:02:19;;;;;;;7.70;1.50;;;;;;;;;;5112220;28;20267;-91
2024/02/06 14:05:24;;;;;;;7.57;1.75;;;;;;;;;;5117865;28;20197;-90
2024/02/06 14:08:30;;;;;;;8.10;1.50;;;;;;;;;;5116011;28;20213;-93
2024/02/06 14:11:35;;;;;;;5.70;1.48;;;;;;;;;;5117084;28;20246;-93
2024/02/06 14:14:42;;;;;;;5.63;1.20;;;;;;;;;;5114727;28;20188;-92
2024/02/06 14:17:49;;;;;;;7.75;1.50;;;;;;;;;;5106155;28;20201;-92
2024/02/06 14:20:55;;;;;;;4.95;1.63;;;;;;;;;;5106621;28;20189;-91
2024/02/06 14:24:01;;;;;;;6.82;1.50;;;;;;;;;;5117617;28;20255;-91
2024/02/06 14:27:07;;;;;;;15.23;1.50;;;;;;;;;;5110756;28;20223;-91
2024/02/06 14:33:40;;;;;;;10.85;1.63;;;;;;;;;;5105297;28;20548;-90
2024/02/06 14:36:45;;;;;;;8.20;1.85;;;;;;;;;;5104907;28;20202;-92
2024/02/06 14:39:51;;;;;;;10.93;1.95;;;;;;;;;;5110296;28;20209;-92
2024/02/06 14:42:58;;;;;;;6.43;1.70;;;;;;;;;;5115241;28;20185;-89
2024/02/06 14:46:03;;;;;;;13.88;2.03;;;;;;;;;;5117294;28;20671;-90
2024/02/06 14:49:10;;;;;;;6.82;1.42;;;;;;;;;;5112281;28;20239;-89
2024/02/06 14:52:15;;;;;;;9.05;1.80;;;;;;;;;;5108765;28;20658;-92
2024/02/06 14:55:19;;;;;;;6.32;1.60;;;;;;;;;;5109719;28;20194;-91
2024/02/06 14:58:25;;;;;;;5.80;1.85;;;;;;;;;;5107802;28;20193;-91
2024/02/06 15:01:30;;;;;;;8.48;2.13;;;;;;;;;;5109373;28;20177;-91
2024/02/06 15:07:59;;;;;;;7.63;1.60;;;;;;;;;;5098491;28;20178;-92
2024/02/06 15:11:09;;;;;;;9.75;2.20;;;;;;;;;;5119412;28;20224;-93
2024/02/06 15:14:15;;;;;;;6.82;1.40;;;;;;;;;;5110051;28;20204;-90
2024/02/06 15:17:20;;;;;;;5.03;1.40;;;;;;;;;;5109134;28;20174;-92
2024/02/06 15:20:28;;;;;;;8.60;1.80;;;;;;;;;;5109080;28;20189;-90
2024/02/06 15:23:33;;;;;;;8.05;1.40;;;;;;;;;;5110303;28;20243;-93
2024/02/06 15:26:40;;;;;;;6.85;1.58;;;;;;;;;;5110496;28;20181;-91
2024/02/06 15:29:45;;;;;;;6.22;1.80;;;;;;;;;;5116977;27;20177;-91
2024/02/06 15:32:52;;;;;;;5.32;1.55;;;;;;;;;;5107935;28;20717;-91
2024/02/06 15:35:59;;;;;;;4.63;1.50;;;;;;;;;;5122962;28;20205;-92
2024/02/06 15:39:06;;;;;;;7.55;1.63;;;;;;;;;;5098787;28;20275;-93
2024/02/06 15:42:13;;;;;;;9.13;2.15;;;;;;;;;;5110454;28;20272;-91
2024/02/06 15:45:20;;;;;;;7.10;2.60;;;;;;;;;;5116162;28;20192;-89
2024/02/06 15:48:26;;;;;;;7.95;1.83;;;;;;;;;;5131240;28;20192;-92
2024/02/06 15:51:36;;;;;;;9.45;1.98;;;;;;;;;;5105883;28;20225;-93
2024/02/06 15:54:44;;;;;;;12.88;3.33;;;;;;;;;;5112858;28;20182;-91
2024/02/06 15:57:51;;;;;;;6.70;1.67;;;;;;;;;;5117279;28;20193;-91
2024/02/06 16:00:57;;;;;;;8.15;2.00;;;;;;;;;;5106576;28;20192;-91
2024/02/06 16:07:24;;;;;;;11.65;1.85;;;;;;;;;;5106880;28;20201;-91
2024/02/06 16:10:30;;;;;;;5.18;1.40;;;;;;;;;;5099616;28;20209;-91
2024/02/06 16:13:39;;;;;;;5.88;1.65;;;;;;;;;;5107453;28;20209;-92
2024/02/06 16:16:45;;;;;;;10.98;2.03;;;;;;;;;;5098685;28;20174;-91
2024/02/06 21:31:31;;;;;;;10.43;3.58;;;;;;;;;;5853240;23;20231;-90
2024/02/06 21:34:38;;;;;;;7.15;3.40;;;;;;;;;;5025191;28;20189;-94
2024/02/06 21:37:43;;;;;;;7.28;3.22;;;;;;;;;;5026100;28;20188;-89
2024/02/06 21:40:49;;;;;;;7.70;3.10;;;;;;;;;;5006320;28;20279;-90
2024/02/06 21:43:54;;;;;;;8.45;3.22;;;;;;;;;;5008911;28;20185;-89
2024/02/06 21:47:02;;;;;;;7.82;3.20;;;;;;;;;;5007531;28;20242;-90
2024/02/06 21:50:10;;;;;;;8.45;3.15;;;;;;;;;;5026676;28;20343;-91
2024/02/06 21:53:16;;;;;;;11.90;3.47;;;;;;;;;;5029794;28;20252;-91
2024/02/06 21:56:21;;;;;;;12.30;3.13;;;;;;;;;;5028141;28;20180;-90
2024/02/06 21:59:27;;;;;;;9.23;3.97;;;;;;;;;;5009590;28;20216;-89
2024/02/06 22:02:34;;;;;;;10.55;3.53;;;;;;;;;;5009499;28;20185;-89
2024/02/06 22:05:40;;;;;;;9.90;3.72;;;;;;;;;;5041065;28;20203;-91
2024/02/06 22:08:46;;;;;;;9.75;3.95;;;;;;;;;;5052407;28;20207;-91
2024/02/06 22:11:51;;;;;;;6.55;3.33;;;;;;;;;;5052960;28;20214;-91
2024/02/06 22:14:58;;;;;;;9.10;3.58;;;;;;;;;;5049234;28;20314;-91
2024/02/06 22:18:06;;;;;;;8.55;3.35;;;;;;;;;;5050191;28;20192;-90
2024/02/06 22:21:11;;;;;;;6.30;3.13;;;;;;;;;;5050079;28;20180;-90
2024/02/06 22:24:18;;;;;;;9.50;3.58;;;;;;;;;;5049865;28;20266;-90
2024/02/06 22:27:24;;;;;;;7.63;3.20;;;;;;;;;;5048349;28;20188;-90
2024/02/06 22:30:29;;;;;;;8.00;3.05;;;;;;;;;;5049012;28;20191;-90
2024/02/06 22:33:38;;;;;;;8.85;3.17;;;;;;;;;;5045679;28;20254;-90
2024/02/06 22:36:43;;;;;;;7.18;3.00;;;;;;;;;;5029084;28;20335;-91
2024/02/06 22:39:49;;;;;;;8.82;3.22;;;;;;;;;;5027176;28;20279;-91
2024/02/06 22:42:54;;;;;;;6.47;3.10;;;;;;;;;;5028609;28;20245;-90
2024/02/06 22:45:59;;;;;;;7.10;3.38;;;;;;;;;;5027121;28;20574;-91
2024/02/06 22:49:08;;;;;;;8.32;3.45;;;;;;;;;;5027265;28;20273;-90
2024/02/06 22:52:16;;;;;;;11.32;4.53;;;;;;;;;;5027647;28;20224;-91
2024/02/06 22:55:21;;;;;;;6.20;3.20;;;;;;;;;;5028013;28;20270;-90
2024/02/06 22:58:28;;;;;;;5.47;2.80;;;;;;;;;;5028360;28;20196;-91
2024/02/06 23:01:36;;;;;;;6.93;2.92;;;;;;;;;;5027117;28;20204;-90
2024/02/06 23:04:42;;;;;;;31.08;9.35;;;;;;;;;;5028178;28;20311;-90
2024/02/06 23:07:49;;;;;;;8.57;3.10;;;;;;;;;;5029256;28;20179;-89
2024/02/06 23:10:54;;;;;;;5.28;2.22;;;;;;;;;;5026683;28;20193;-90
2024/02/06 23:14:01;;;;;;;6.43;2.45;;;;;;;;;;5027442;28;20172;-89
2024/02/06 23:17:06;;;;;;;5.22;2.40;;;;;;;;;;5033366;28;20212;-90
2024/02/06 23:20:13;;;;;;;7.22;2.50;;;;;;;;;;5028734;28;20269;-90
2024/02/06 23:23:19;;;;;;;7.65;2.80;;;;;;;;;;5029020;28;20195;-91
2024/02/06 23:26:28;;;;;;;5.30;2.05;;;;;;;;;;5030104;28;20200;-89
2024/02/06 23:29:34;;;;;;;7.38;3.15;;;;;;;;;;5028664;28;20217;-90
2024/02/06 23:32:40;;;;;;;10.10;3.17;;;;;;;;;;5029124;28;20255;-91
2024/02/06 23:35:47;;;;;;;6.60;2.22;;;;;;;;;;5033260;28;20172;-89
2024/02/06 23:38:53;;;;;;;8.70;2.80;;;;;;;;;;5028804;28;20665;-89
2024/02/06 23:41:59;;;;;;;4.47;2.13;;;;;;;;;;5026672;28;20197;-90
2024/02/06 23:45:05;;;;;;;5.07;2.60;;;;;;;;;;5027659;28;20288;-89
2024/02/06 23:48:10;;;;;;;4.07;2.10;;;;;;;;;;5026408;28;20189;-90
2024/02/06 23:51:17;;;;;;;6.20;2.50;;;;;;;;;;5027276;28;20200;-91
2024/02/06 23:54:22;;;;;;;4.63;2.30;;;;;;;;;;5027605;28;20231;-89